createdAt,value
2022-12-17T00:01:06.629Z,100537.22
2022-12-17T00:03:52.846Z,100542.66
2022-12-17T00:06:39.882Z,100533.09
2022-12-17T00:09:25.574Z,100544.66
2022-12-17T00:12:11.242Z,100534.28
2022-12-17T00:14:56.599Z,100533.41
2022-12-17T00:17:55.953Z,100544.97
2022-12-17T00:20:41.948Z,100544.19
2022-12-17T00:23:28.148Z,100554.75
2022-12-17T00:26:15.380Z,100553.94
2022-12-17T00:29:01.148Z,100553.13
2022-12-17T00:31:48.157Z,100554.13
2022-12-17T00:34:34.019Z,100548.84
2022-12-17T00:37:19.698Z,100546.38
2022-12-17T00:40:07.167Z,100545.56
2022-12-17T00:42:52.763Z,100545.56
2022-12-17T00:45:41.733Z,100535.19
2022-12-17T00:48:27.067Z,100544.03
2022-12-17T00:51:14.317Z,100534.41
2022-12-17T00:53:59.586Z,100526.50
2022-12-17T00:56:45.034Z,100536.25
2022-12-17T00:59:30.579Z,100529.31
2022-12-17T01:02:16.371Z,100531.94
2022-12-17T01:05:02.210Z,100521.47
2022-12-17T01:07:47.580Z,100531.16
2022-12-17T01:10:33.447Z,100534.72
2022-12-17T01:13:19.035Z,100537.28
2022-12-17T01:16:04.691Z,100541.69
2022-12-17T01:18:54.580Z,100541.69
2022-12-17T01:21:41.871Z,100544.31
2022-12-17T01:24:32.309Z,100542.63
2022-12-17T01:27:18.147Z,100540.91
2022-12-17T01:30:03.454Z,100542.63
2022-12-17T01:32:48.785Z,100535.66
2022-12-17T01:35:34.719Z,100541.00
2022-12-17T01:38:20.035Z,100535.78
2022-12-17T01:41:11.319Z,100537.50
2022-12-17T01:43:57.702Z,100541.94
2022-12-17T01:46:46.166Z,100540.22
2022-12-17T01:49:32.174Z,100545.47
2022-12-17T01:52:19.270Z,100550.84
2022-12-17T01:55:05.038Z,100548.19
2022-12-17T01:57:50.886Z,100560.53
2022-12-17T02:00:37.534Z,100572.84
2022-12-17T02:03:23.767Z,100570.19
2022-12-17T02:06:36.364Z,100570.28
2022-12-17T02:09:21.795Z,100570.28
2022-12-17T02:12:31.988Z,100566.78
2022-12-17T02:15:29.269Z,100565.88
2022-12-17T02:18:20.990Z,100562.38
2022-12-17T02:21:09.331Z,100563.31
2022-12-17T02:24:15.068Z,100563.38
2022-12-17T02:27:10.619Z,100574.78
2022-12-17T02:30:03.087Z,100579.25
2022-12-17T02:32:49.989Z,100579.25
2022-12-17T02:35:41.269Z,100575.78
2022-12-17T02:38:38.024Z,100577.56
2022-12-17T02:41:25.800Z,100577.56
2022-12-17T02:44:13.527Z,100582.91
2022-12-17T02:47:00.888Z,100572.34
2022-12-17T02:49:46.363Z,100569.66
2022-12-17T02:52:35.142Z,100570.53
2022-12-17T02:55:20.883Z,100571.44
2022-12-17T02:58:06.472Z,100567.88
2022-12-17T03:00:51.815Z,100562.69
2022-12-17T03:03:37.970Z,100567.03
2022-12-17T03:06:23.945Z,100560.13
2022-12-17T03:09:12.535Z,100556.53
2022-12-17T03:11:57.956Z,100568.81
2022-12-17T03:14:43.243Z,100572.31
2022-12-17T03:17:28.682Z,100566.16
2022-12-17T03:20:14.351Z,100567.03
2022-12-17T03:22:59.609Z,100569.66
2022-12-17T03:25:45.193Z,100570.53
2022-12-17T03:28:30.765Z,100575.78
2022-12-17T03:31:17.401Z,100584.53
2022-12-17T03:34:03.441Z,100584.63
2022-12-17T03:36:49.226Z,100584.53
2022-12-17T03:39:34.942Z,100578.44
2022-12-17T03:42:20.813Z,100574.84
2022-12-17T03:45:06.355Z,100582.75
2022-12-17T03:47:51.779Z,100573.94
2022-12-17T03:50:37.263Z,100566.94
2022-12-17T03:53:23.803Z,100573.94
2022-12-17T03:56:09.496Z,100575.56
2022-12-17T03:58:54.780Z,100568.56
2022-12-17T04:01:40.527Z,100573.78
2022-12-17T04:04:26.036Z,100565.88
2022-12-17T04:07:11.674Z,100569.28
2022-12-17T04:09:57.072Z,100566.66
2022-12-17T04:12:42.399Z,100565.78
2022-12-17T04:15:28.051Z,100555.19
2022-12-17T04:18:13.632Z,100550.84
2022-12-17T04:21:06.645Z,100545.47
2022-12-17T04:23:52.283Z,100543.69
2022-12-17T04:26:37.839Z,100554.25
2022-12-17T04:29:22.959Z,100556.88
2022-12-17T04:32:08.333Z,100546.34
2022-12-17T04:34:53.663Z,100540.91
2022-12-17T04:37:38.965Z,100533.00
2022-12-17T04:40:25.153Z,100546.19
2022-12-17T04:43:11.281Z,100547.91
2022-12-17T04:45:56.839Z,100550.44
2022-12-17T04:48:42.298Z,100565.41
2022-12-17T04:51:27.866Z,100567.13
2022-12-17T04:54:12.990Z,100567.13
2022-12-17T04:56:58.418Z,100565.34
2022-12-17T04:59:43.868Z,100572.41
2022-12-17T05:02:29.620Z,100568.00
2022-12-17T05:05:15.324Z,100588.13
2022-12-17T05:08:00.719Z,100583.72
2022-12-17T05:10:45.894Z,100595.03
2022-12-17T05:13:31.883Z,100593.25
2022-12-17T05:16:17.411Z,100592.41
2022-12-17T05:19:03.079Z,100600.31
2022-12-17T05:21:48.436Z,100582.72
2022-12-17T05:24:34.221Z,100583.56
2022-12-17T05:27:19.880Z,100584.50
2022-12-17T05:30:04.883Z,100572.09
2022-12-17T05:32:50.350Z,100572.09
2022-12-17T05:35:36.066Z,100582.56
2022-12-17T05:38:23.471Z,100572.03
2022-12-17T05:41:09.274Z,100569.38
2022-12-17T05:43:54.626Z,100574.56
2022-12-17T05:46:40.089Z,100569.28
2022-12-17T05:49:25.823Z,100583.34
2022-12-17T05:52:11.248Z,100580.63
2022-12-17T05:54:56.637Z,100575.38
2022-12-17T05:57:41.839Z,100569.22
2022-12-17T06:00:28.034Z,100560.41
2022-12-17T06:03:18.384Z,100566.59
2022-12-17T06:06:03.785Z,100569.00
2022-12-17T06:08:49.224Z,100576.69
2022-12-17T06:11:34.920Z,100577.63
2022-12-17T06:14:20.046Z,100576.69
2022-12-17T06:17:05.306Z,100582.03
2022-12-17T06:19:50.700Z,100584.59
2022-12-17T06:22:36.324Z,100582.66
2022-12-17T06:25:21.959Z,100587.69
2022-12-17T06:28:07.570Z,100592.13
2022-12-17T06:30:52.979Z,100587.53
2022-12-17T06:33:38.710Z,100590.13
2022-12-17T06:36:24.564Z,100589.16
2022-12-17T06:39:10.245Z,100575.97
2022-12-17T06:42:00.505Z,100570.66
2022-12-17T06:44:47.657Z,100567.91
2022-12-17T06:47:33.524Z,100573.03
2022-12-17T06:50:19.291Z,100561.63
2022-12-17T06:53:04.850Z,100558.94
2022-12-17T06:55:50.422Z,100568.53
2022-12-17T06:58:36.012Z,100574.75
2022-12-17T07:01:22.090Z,100574.59
2022-12-17T07:04:08.092Z,100593.06
2022-12-17T07:06:53.589Z,100598.16
2022-12-17T07:09:39.093Z,100602.53
2022-12-17T07:12:24.617Z,100608.66
2022-12-17T07:15:09.799Z,100608.56
2022-12-17T07:17:55.500Z,100614.69
2022-12-17T07:20:40.830Z,100613.78
2022-12-17T07:23:27.012Z,100605.88
2022-12-17T07:26:12.492Z,100614.63
2022-12-17T07:28:58.159Z,100606.72
2022-12-17T07:31:43.543Z,100607.50
2022-12-17T07:34:29.311Z,100613.56
2022-12-17T07:37:20.204Z,100613.56
2022-12-17T07:40:06.178Z,100617.84
2022-12-17T07:42:51.444Z,100615.28
2022-12-17T07:45:37.241Z,100614.28
2022-12-17T07:48:22.677Z,100614.19
2022-12-17T07:51:09.291Z,100616.81
2022-12-17T07:53:54.714Z,100625.50
2022-12-17T07:56:40.106Z,100629.97
2022-12-17T07:59:25.684Z,100638.66
2022-12-17T08:02:11.718Z,100642.13
2022-12-17T08:04:57.515Z,100649.09
2022-12-17T08:07:44.014Z,100656.97
2022-12-17T08:10:29.719Z,100649.91
2022-12-17T08:13:21.000Z,100644.78
2022-12-17T08:16:07.355Z,100654.38
2022-12-17T08:18:52.897Z,100671.94
2022-12-17T08:21:38.212Z,100683.34
2022-12-17T08:24:24.382Z,100683.41
2022-12-17T08:27:09.871Z,100682.41
2022-12-17T08:29:55.449Z,100692.19
2022-12-17T08:32:41.384Z,100695.69
2022-12-17T08:35:26.995Z,100700.03
2022-12-17T08:38:12.066Z,100701.66
2022-12-17T08:40:57.480Z,100695.53
2022-12-17T08:43:42.779Z,100699.19
2022-12-17T08:46:28.359Z,100704.84
2022-12-17T08:49:14.039Z,100705.09
2022-12-17T08:51:59.537Z,100701.41
2022-12-17T08:54:45.377Z,100700.16
2022-12-17T08:57:32.193Z,100698.88
2022-12-17T09:00:19.028Z,100705.69
2022-12-17T09:03:04.861Z,100693.84
2022-12-17T09:05:50.596Z,100687.50
2022-12-17T09:08:37.776Z,100680.28
2022-12-17T09:11:23.544Z,100687.28
2022-12-17T09:14:08.903Z,100699.38
2022-12-17T09:16:54.269Z,100709.03
2022-12-17T09:19:40.249Z,100706.09
2022-12-17T09:22:25.910Z,100702.19
2022-12-17T09:25:11.609Z,100693.03
2022-12-17T09:27:57.101Z,100698.88
2022-12-17T09:30:42.778Z,100689.03
2022-12-17T09:33:34.275Z,100694.81
2022-12-17T09:36:24.332Z,100688.31
2022-12-17T09:39:09.977Z,100689.75
2022-12-17T09:42:23.809Z,100690.44
2022-12-17T09:45:33.292Z,100693.63
2022-12-17T09:48:32.550Z,100695.94
2022-12-17T09:51:18.848Z,100695.47
2022-12-17T09:54:08.716Z,100698.56
2022-12-17T09:56:56.566Z,100706.06
2022-12-17T09:59:48.691Z,100695.09
2022-12-17T10:02:43.497Z,100702.53
2022-12-17T10:05:48.251Z,100701.25
2022-12-17T10:08:38.895Z,100704.53
2022-12-17T10:11:47.592Z,100714.69
2022-12-17T10:14:37.286Z,100710.94
2022-12-17T10:17:23.145Z,100706.25
2022-12-17T10:20:12.581Z,100707.69
2022-12-17T10:23:03.555Z,100709.84
2022-12-17T10:25:49.018Z,100717.59
2022-12-17T10:28:39.181Z,100717.41
2022-12-17T10:31:38.249Z,100718.09
2022-12-17T10:34:36.150Z,100716.97
2022-12-17T10:37:23.260Z,100722.03
2022-12-17T10:40:18.420Z,100720.91
2022-12-17T10:43:25.291Z,100720.84
2022-12-17T10:46:16.331Z,100727.47
2022-12-17T10:49:05.699Z,100730.81
2022-12-17T10:51:55.366Z,100733.19
2022-12-17T10:54:49.652Z,100733.59
2022-12-17T10:57:41.002Z,100740.50
2022-12-17T11:00:50.497Z,100739.38
2022-12-17T11:04:25.826Z,100731.28
2022-12-17T11:07:14.518Z,100738.88
2022-12-17T11:10:10.726Z,100728.19
2022-12-17T11:13:10.808Z,100734.09
2022-12-17T11:16:02.422Z,100740.88
2022-12-17T11:18:59.471Z,100732.88
2022-12-17T11:21:53.970Z,100735.53
2022-12-17T11:24:51.432Z,100750.44
2022-12-17T11:27:44.700Z,100739.16
2022-12-17T11:30:31.827Z,100736.75
2022-12-17T11:33:20.049Z,100740.28
2022-12-17T11:36:43.633Z,100741.31
2022-12-17T11:40:01.359Z,100745.75
2022-12-17T11:42:53.400Z,100747.91
2022-12-17T11:45:47.919Z,100750.72
2022-12-17T11:48:45.518Z,100752.59
2022-12-17T11:51:35.621Z,100751.91
2022-12-17T11:54:23.866Z,100749.69
2022-12-17T11:57:27.204Z,100751.19
2022-12-17T12:00:20.046Z,100750.97
2022-12-17T12:03:20.373Z,100754.25
2022-12-17T12:06:14.636Z,100755.91
2022-12-17T12:09:21.681Z,100753.41
2022-12-17T12:12:32.364Z,100757.03
2022-12-17T12:15:39.560Z,100757.19
2022-12-17T12:18:39.946Z,100754.44
2022-12-17T12:22:04.240Z,100758.13
2022-12-17T12:25:19.079Z,100763.63
2022-12-17T12:28:23.659Z,100758.56
2022-12-17T12:31:33.751Z,100755.84
2022-12-17T12:34:30.490Z,100747.63
2022-12-17T12:37:19.943Z,100750.00
2022-12-17T12:40:18.600Z,100757.88
2022-12-17T12:43:30.677Z,100761.97
2022-12-17T12:46:55.830Z,100765.22
2022-12-17T12:50:11.333Z,100754.63
2022-12-17T12:52:56.831Z,100752.00
2022-12-17T12:55:42.212Z,100757.34
2022-12-17T12:58:48.869Z,100749.34
2022-12-17T13:01:35.103Z,100760.88
2022-12-17T13:04:34.552Z,100753.09
2022-12-17T13:07:03.611Z,100754.56
2022-12-17T13:09:35.016Z,100753.25
2022-12-17T13:12:05.292Z,100755.47
2022-12-17T13:14:55.434Z,100755.72
2022-12-17T13:17:26.991Z,100771.16
2022-12-17T13:19:56.830Z,100765.53
2022-12-17T13:22:24.417Z,100771.09
2022-12-17T13:24:54.177Z,100768.28
2022-12-17T13:27:36.069Z,100773.22
2022-12-17T13:30:12.156Z,100780.31
2022-12-17T13:33:03.367Z,100778.44
2022-12-17T13:35:44.107Z,100767.75
2022-12-17T13:38:32.489Z,100773.41
2022-12-17T13:41:11.966Z,100778.88
2022-12-17T13:43:43.889Z,100777.16
2022-12-17T13:46:23.323Z,100768.88
2022-12-17T13:49:02.244Z,100766.53
2022-12-17T13:51:32.836Z,100770.56
2022-12-17T13:54:01.891Z,100774.03
2022-12-17T13:56:32.885Z,100773.00
2022-12-17T13:59:09.304Z,100777.47
2022-12-17T14:01:45.639Z,100780.03
2022-12-17T14:04:29.710Z,100780.78
2022-12-17T14:07:00.145Z,100780.34
2022-12-17T14:09:35.358Z,100772.19
2022-12-17T14:12:24.560Z,100785.50
2022-12-17T14:15:05.039Z,100768.31
2022-12-17T14:17:44.126Z,100762.75
2022-12-17T14:20:17.781Z,100765.84
2022-12-17T14:23:13.251Z,100768.22
2022-12-17T14:25:43.698Z,100770.25
2022-12-17T14:28:38.374Z,100780.47
2022-12-17T14:31:30.857Z,100783.78
2022-12-17T14:34:11.966Z,100788.84
2022-12-17T14:36:41.456Z,100787.28
2022-12-17T14:39:23.235Z,100804.31
2022-12-17T14:42:08.882Z,100799.97
2022-12-17T14:44:38.864Z,100800.91
2022-12-17T14:47:19.095Z,100797.25
2022-12-17T14:50:07.710Z,100795.47
2022-12-17T14:52:45.468Z,100804.56
2022-12-17T14:55:57.815Z,100807.66
2022-12-17T14:58:26.637Z,100812.13
2022-12-17T15:01:05.369Z,100802.66
2022-12-17T15:03:34.391Z,100812.66
2022-12-17T15:06:03.696Z,100810.00
2022-12-17T15:08:37.159Z,100804.78
2022-12-17T15:11:04.367Z,100807.63
2022-12-17T15:13:31.366Z,100817.09
2022-12-17T15:15:58.295Z,100822.88
2022-12-17T15:18:25.568Z,100829.72
2022-12-17T15:20:53.303Z,100839.09
2022-12-17T15:23:23.310Z,100832.78
2022-12-17T15:25:52.267Z,100837.25
2022-12-17T15:28:20.568Z,100837.47
2022-12-17T15:30:48.476Z,100835.19
2022-12-17T15:33:16.421Z,100846.75
2022-12-17T15:35:43.896Z,100838.22
2022-12-17T15:38:12.710Z,100841.41
2022-12-17T15:40:40.060Z,100849.25
2022-12-17T15:43:12.249Z,100855.13
2022-12-17T15:45:40.016Z,100853.13
2022-12-17T15:48:07.348Z,100859.94
2022-12-17T15:50:34.861Z,100862.59
2022-12-17T15:53:02.277Z,100864.97
2022-12-17T15:55:30.529Z,100855.25
2022-12-17T15:57:57.898Z,100862.44
2022-12-17T16:00:25.003Z,100857.41
2022-12-17T16:02:52.386Z,100858.06
2022-12-17T16:05:21.028Z,100860.88
2022-12-17T16:07:48.919Z,100854.81
2022-12-17T16:10:16.062Z,100857.22
2022-12-17T16:12:43.639Z,100859.84
2022-12-17T16:15:12.897Z,100864.16
2022-12-17T16:17:40.510Z,100861.50
2022-12-17T16:20:08.453Z,100855.09
2022-12-17T16:22:35.532Z,100864.66
2022-12-17T16:25:02.631Z,100862.72
2022-12-17T16:27:29.568Z,100862.72
2022-12-17T16:29:56.687Z,100864.50
2022-12-17T16:32:23.769Z,100873.34
2022-12-17T16:34:50.658Z,100875.59
2022-12-17T16:37:17.598Z,100888.72
2022-12-17T16:39:44.515Z,100888.09
2022-12-17T16:42:12.012Z,100880.91
2022-12-17T16:44:39.250Z,100883.47
2022-12-17T16:47:06.508Z,100878.72
2022-12-17T16:49:33.879Z,100885.31
2022-12-17T16:52:02.697Z,100894.09
2022-12-17T16:54:32.733Z,100882.69
2022-12-17T16:57:00.971Z,100884.53
2022-12-17T16:59:28.529Z,100888.78
2022-12-17T17:01:57.644Z,100888.63
2022-12-17T17:04:24.711Z,100884.97
2022-12-17T17:06:54.828Z,100898.56
2022-12-17T17:09:22.709Z,100894.94
2022-12-17T17:11:52.057Z,100898.56
2022-12-17T17:14:19.853Z,100896.66
2022-12-17T17:16:47.196Z,100901.97
2022-12-17T17:19:15.330Z,100916.69
2022-12-17T17:21:48.329Z,100922.91
2022-12-17T17:24:21.460Z,100914.91
2022-12-17T17:26:50.731Z,100910.47
2022-12-17T17:29:19.241Z,100906.66
2022-12-17T17:34:38.119Z,100908.56
2022-12-17T17:37:05.156Z,100918.97
2022-12-17T17:39:33.539Z,100920.91
2022-12-17T17:42:01.827Z,100923.47
2022-12-17T17:44:28.998Z,100928.59
2022-12-17T17:46:55.979Z,100938.25
2022-12-17T17:49:23.071Z,100937.00
2022-12-17T17:54:38.567Z,100948.06
2022-12-17T17:57:05.629Z,100957.41
2022-12-17T17:59:34.510Z,100952.72
2022-12-17T18:02:03.657Z,100948.94
2022-12-17T18:04:31.938Z,100952.19
2022-12-17T18:09:47.377Z,100971.88
2022-12-17T18:12:32.883Z,100966.25
2022-12-17T18:15:17.304Z,100979.66
2022-12-17T18:17:52.195Z,100975.38
2022-12-17T18:20:19.891Z,100975.22
2022-12-17T18:22:47.332Z,100968.91
2022-12-17T18:25:16.004Z,100975.28
2022-12-17T18:27:43.680Z,100967.69
2022-12-17T18:30:11.078Z,100963.94
2022-12-17T18:32:38.145Z,100968.13
2022-12-17T18:35:05.778Z,100978.47
2022-12-17T18:37:32.783Z,100985.28
2022-12-17T18:39:59.937Z,100985.38
2022-12-17T18:42:45.720Z,100985.56
2022-12-17T18:45:13.145Z,100987.44
2022-12-17T18:47:40.115Z,100990.84
2022-12-17T18:50:07.773Z,100999.72
2022-12-17T18:52:34.800Z,101001.59
2022-12-17T18:55:01.895Z,101010.16
2022-12-17T18:57:29.170Z,101014.38
2022-12-17T18:59:57.074Z,101020.69
2022-12-17T19:02:24.625Z,101026.75
2022-12-17T19:04:51.964Z,101023.94
2022-12-17T19:07:20.360Z,101030.03
2022-12-17T19:09:48.285Z,101031.66
2022-12-17T19:12:15.485Z,101035.00
2022-12-17T19:14:43.158Z,101025.16
2022-12-17T19:17:10.074Z,101035.59
2022-12-17T19:19:37.086Z,101036.31
2022-12-17T19:22:04.778Z,101035.28
2022-12-17T19:24:32.512Z,101040.47
2022-12-17T19:26:59.868Z,101047.50
2022-12-17T19:29:27.456Z,101059.63
2022-12-17T19:31:54.686Z,101054.16
2022-12-17T19:34:21.797Z,101054.16
2022-12-17T19:36:49.137Z,101056.66
2022-12-17T19:39:19.104Z,101052.97
2022-12-17T19:41:46.251Z,101062.56
2022-12-17T19:44:15.846Z,101068.53
2022-12-17T19:46:43.400Z,101061.34
2022-12-17T19:49:15.819Z,101062.97
2022-12-17T19:51:44.769Z,101055.78
2022-12-17T19:54:15.331Z,101044.25
2022-12-17T19:56:44.118Z,101059.91
2022-12-17T19:59:11.996Z,101055.47
2022-12-17T20:01:46.188Z,101059.63
2022-12-17T20:04:15.006Z,101063.91
2022-12-17T20:06:43.509Z,101065.63
2022-12-17T20:09:11.052Z,101069.91
2022-12-17T20:11:38.729Z,101066.31
2022-12-17T20:14:12.586Z,101070.59
2022-12-17T20:16:44.067Z,101074.09
2022-12-17T20:19:31.490Z,101073.16
2022-12-17T20:22:00.385Z,101074.88
2022-12-17T20:24:31.569Z,101080.19
2022-12-17T20:27:00.724Z,101081.88
2022-12-17T20:29:27.906Z,101073.75
2022-12-17T20:31:56.050Z,101072.97
2022-12-17T20:34:25.126Z,101064.44
2022-12-17T20:36:54.231Z,101060.16
2022-12-17T20:39:27.043Z,101057.59
2022-12-17T20:41:57.958Z,101055.88
2022-12-17T20:44:25.746Z,101060.25
2022-12-17T20:46:52.920Z,101071.63
2022-12-17T20:49:20.469Z,101076.94
2022-12-17T20:51:48.903Z,101070.75
2022-12-17T20:54:15.990Z,101073.50
2022-12-17T20:56:42.973Z,101075.91
2022-12-17T20:59:16.003Z,101090.31
2022-12-17T21:01:43.802Z,101085.88
2022-12-17T21:04:13.133Z,101100.53
2022-12-17T21:06:42.441Z,101097.97
2022-12-17T21:09:10.680Z,101113.28
2022-12-17T21:11:38.881Z,101120.81
2022-12-17T21:14:14.746Z,101129.38
2022-12-17T21:16:43.517Z,101132.81
2022-12-17T21:19:14.435Z,101131.78
2022-12-17T21:21:42.124Z,101139.72
2022-12-17T21:24:10.278Z,101147.63
2022-12-17T21:26:40.247Z,101150.25
2022-12-17T21:29:09.255Z,101145.81
2022-12-17T21:31:41.224Z,101143.19
2022-12-17T21:34:13.035Z,101155.56
2022-12-17T21:36:42.164Z,101156.66
2022-12-17T21:39:13.504Z,101162.97
2022-12-17T21:41:45.165Z,101164.69
2022-12-17T21:44:15.636Z,101161.88
2022-12-17T21:46:49.963Z,101163.41
2022-12-17T21:49:18.504Z,101158.13
2022-12-17T21:51:46.608Z,101151.03
2022-12-17T21:54:19.219Z,101154.53
2022-12-17T21:56:47.462Z,101150.00
2022-12-17T21:59:15.142Z,101147.34
2022-12-17T22:01:43.945Z,101155.31
2022-12-17T22:04:12.051Z,101149.25
2022-12-17T22:06:44.427Z,101154.69
2022-12-17T22:09:31.802Z,101152.81
2022-12-17T22:12:28.734Z,101163.41
2022-12-17T22:14:55.785Z,101170.28
2022-12-17T22:17:24.481Z,101177.28
2022-12-17T22:19:51.815Z,101179.56
2022-12-17T22:22:19.044Z,101181.47
2022-12-17T22:24:45.999Z,101192.22
2022-12-17T22:27:13.277Z,101189.94
2022-12-17T22:29:59.226Z,101190.88
2022-12-17T22:32:44.817Z,101188.06
2022-12-17T22:37:33.876Z,101192.25
2022-12-17T22:44:01.273Z,101194.56
2022-12-17T22:44:27.828Z,101196.88
2022-12-17T22:44:45.635Z,101196.34
2022-12-17T22:46:24.767Z,101197.34
2022-12-17T22:48:52.285Z,101202.94
2022-12-17T22:51:27.488Z,101202.38
2022-12-17T22:53:57.044Z,101213.25
2022-12-17T22:56:33.924Z,101212.66
2022-12-17T22:59:19.168Z,101211.25
2022-12-17T23:01:46.767Z,101216.75
2022-12-17T23:04:16.016Z,101209.19
2022-12-17T23:06:45.815Z,101205.00
2022-12-17T23:09:19.623Z,101215.75
2022-12-17T23:11:50.693Z,101219.41
2022-12-17T23:14:18.914Z,101211.81
2022-12-17T23:16:45.850Z,101198.88
2022-12-17T23:19:13.967Z,101211.44
2022-12-17T23:21:41.583Z,101203.72
2022-12-17T23:24:09.271Z,101201.31
2022-12-17T23:26:37.604Z,101205.84
2022-12-17T23:29:08.627Z,101209.50
2022-12-17T23:31:38.687Z,101207.06
2022-12-17T23:34:06.353Z,101212.53
2022-12-17T23:36:33.936Z,101217.09
2022-12-17T23:39:01.489Z,101211.22
2022-12-17T23:41:31.486Z,101214.06
2022-12-17T23:43:59.307Z,101218.63
2022-12-17T23:46:29.308Z,101214.44
2022-12-17T23:48:56.496Z,101210.16
2022-12-17T23:51:26.989Z,101217.44
2022-12-17T23:53:54.335Z,101221.84
2022-12-17T23:56:24.230Z,101216.69
2022-12-17T23:58:59.317Z,101220.44
